Strona główna
METAR-TAF:

METAR-TAF

Lotnisko :

Port lotniczy Jämsä

Jämsä, Finlandia

Szerokość geograficzna: 61-51N, Długość geograficzna: 024-48E, wysokość: 143 m

Aktualna obserwacja pogody

Raport powstał 36 minut temu, godzina 11:50 UTC
Wiatr 13 kt od zachodnio-północny zachód, zmienny między zachód i północno-północny zachód
Temperatura 0°C
Wilgotność 86%
Ciśnienie 979 hPa
Widzialność: 6000 m
Zachmurzenie całkowite na wysokości 1000 ft
słaby przelotny opad śniegu

METAR: EFHA 031150Z AUTO 30013KT 270V330 6000 -SHSN OVC010 M00/M02 Q0979 REFZDZ

czas: 15:26 (12:26 UTC)

Prognoza

Raport powstał 24 godziny i 49 minut temu, godzina 11:37 UTC
Prognoza ważna od 02 godzina 12 UTC do 02 godzina 14 UTC
Wiatr 8 kt od południe
Widzialność 10 km lub więcej
Przerywane chmury na wysokości 700 ft
Przejściowo
od 02 godzina 12 UTC do 02 godzina 14 UTC
Widzialność: 2000 m
mżawka, deszcz

TAF: EFHA 021137Z 0212/0214 19008KT 9999 BKN007 TEMPO 0212/0214 2000 DZRA

Obserwacja i prognoza pogody dla ponad 4000 lotnisk (raport METAR i TAF).

Dostępne stacje oznaczono żółtymi i czerwonymi punktami na mapie.

Najedź kursorem aby zobaczyć nazwę stacji.

Kliknij aby zobaczyć obserwacje i prognozy pogody.

Aby zmienić mapę: kliknij na zielony przycisk z czarnym krzyżykiem, aby powiększyć; na zielony przycisk z myślnikiem, aby pomniejszyć; na zielone strzałki, aby przejść do map sąsiednich.


METAR-TAF: